Time;durP1;ratioP1;P1;durP2;ratioP2;P2;SDS_P1;SDS_P2;PMS_P1;PMS_P2;Temp;Humidity;BMP_temperature;BMP_pressure;BME280_temperature;BME280_humidity;BME280_pressure;Samples;Min_cycle;Max_cycle;Signal;HPM_P1;HPM_P2
2023/04/18 00:00:41;;;;;;;;;;;;;;;21.44;46.96;102707.31;7257071;19;153419;-55
2023/04/18 00:03:08;;;;;;;;;;;;;;;21.41;47.04;102705.03;7254623;19;155010;-54
2023/04/18 00:05:36;;;;;;;;;;;;;;;21.41;46.84;102708.69;7255926;19;153898;-54
2023/04/18 00:08:04;;;;;;;;;;;;;;;21.34;47.35;102702.47;7253318;19;154748;-55
2023/04/18 00:10:31;;;;;;;;;;;;;;;21.36;47.32;102699.38;7256018;19;154040;-55
2023/04/18 00:12:59;;;;;;;;;;;;;;;21.32;47.17;102699.06;7262078;19;153497;-55
2023/04/18 00:15:28;;;;;;;;;;;;;;;21.32;47.10;102703.84;7254104;19;153584;-55
2023/04/18 00:17:55;;;;;;;;;;;;;;;21.30;47.14;102698.53;7249909;19;153678;-54
2023/04/18 00:22:53;;;;;;;;;;;;;;;21.24;47.68;102696.78;7249622;19;153343;-54
2023/04/18 00:25:20;;;;;;;;;;;;;;;21.25;47.35;102701.28;7254086;19;154145;-54
2023/04/18 00:27:47;;;;;;;;;;;;;;;21.22;47.54;102693.38;7250126;19;153704;-54
2023/04/18 00:30:15;;;;;;;;;;;;;;;21.23;47.51;102701.56;7251800;19;153499;-54
2023/04/18 00:32:42;;;;;;;;;;;;;;;21.26;47.98;102706.63;7250057;19;154799;-55
2023/04/18 00:35:09;;;;;;;;;;;;;;;21.24;48.09;102705.22;7260035;19;153229;-54
2023/04/18 00:37:37;;;;;;;;;;;;;;;21.21;48.12;102700.97;7252978;19;154187;-54
2023/04/18 00:40:05;;;;;;;;;;;;;;;21.18;47.91;102698.69;7254639;19;153954;-54
2023/04/18 00:42:32;;;;;;;;;;;;;;;21.18;48.34;102700.66;7253162;19;154132;-54
2023/04/18 00:45:00;;;;;;;;;;;;;;;21.16;48.06;102700.94;7253439;19;152766;-54
2023/04/18 00:47:27;;;;;;;;;;;;;;;21.17;48.44;102705.44;7250228;19;152565;-54
2023/04/18 00:49:54;;;;;;;;;;;;;;;21.15;48.37;102699.25;7251042;19;154401;-54
2023/04/18 00:52:21;;;;;;;;;;;;;;;21.14;48.02;102697.56;7251620;19;153852;-55
2023/04/18 00:54:48;;;;;;;;;;;;;;;21.11;48.30;102700.03;7253828;19;153821;-55
2023/04/18 00:57:15;;;;;;;;;;;;;;;21.11;48.30;102700.88;7257555;19;154174;-55
2023/04/18 00:59:42;;;;;;;;;;;;;;;21.10;48.19;102695.53;7251430;19;153434;-55
2023/04/18 01:02:09;;;;;;;;;;;;;;;21.11;48.69;102695.25;7248633;19;153826;-55
2023/04/18 01:04:36;;;;;;;;;;;;;;;21.11;48.40;102694.41;7249886;19;152801;-55
2023/04/18 01:07:03;;;;;;;;;;;;;;;21.09;48.21;102688.19;7248472;19;153944;-55
2023/04/18 01:09:30;;;;;;;;;;;;;;;21.09;48.50;102696.63;7248573;19;154898;-55
2023/04/18 01:11:57;;;;;;;;;;;;;;;21.08;48.29;102686.50;7251234;19;153516;-56
2023/04/18 01:14:24;;;;;;;;;;;;;;;21.06;48.75;102685.94;7250949;19;152529;-55
2023/04/18 01:16:51;;;;;;;;;;;;;;;21.05;48.48;102676.66;7255435;19;153868;-55
2023/04/18 01:19:18;;;;;;;;;;;;;;;21.03;48.91;102686.47;7249345;19;153227;-55
2023/04/18 01:21:46;;;;;;;;;;;;;;;21.00;48.60;102681.38;7250584;19;155761;-55
2023/04/18 01:24:13;;;;;;;;;;;;;;;21.00;48.78;102675.75;7243611;19;154764;-55
2023/04/18 01:26:42;;;;;;;;;;;;;;;20.98;48.54;102675.19;7251854;19;152286;-55
2023/04/18 01:29:10;;;;;;;;;;;;;;;20.97;49.01;102677.16;7248831;19;152693;-55
2023/04/18 01:31:37;;;;;;;;;;;;;;;20.95;49.03;102668.13;7248828;19;153198;-55
2023/04/18 01:34:05;;;;;;;;;;;;;;;20.96;48.90;102663.38;7255052;19;153637;-55
2023/04/18 01:36:32;;;;;;;;;;;;;;;20.94;48.80;102662.81;7254392;19;153385;-55
2023/04/18 01:38:59;;;;;;;;;;;;;;;20.94;48.76;102660.00;7264487;19;153118;-55
2023/04/18 01:41:28;;;;;;;;;;;;;;;20.93;49.29;102661.09;7254779;19;155469;-55
2023/04/18 01:43:55;;;;;;;;;;;;;;;20.92;49.35;102662.22;7257619;19;153527;-55
2023/04/18 01:46:22;;;;;;;;;;;;;;;20.94;48.92;102657.19;7254518;19;153277;-55
2023/04/18 01:48:49;;;;;;;;;;;;;;;20.91;49.02;102650.13;7252325;19;154748;-55
2023/04/18 01:51:16;;;;;;;;;;;;;;;20.89;49.15;102658.00;7255544;19;154121;-55
2023/04/18 01:53:44;;;;;;;;;;;;;;;20.90;49.16;102659.66;7257028;19;154702;-55
2023/04/18 01:56:10;;;;;;;;;;;;;;;20.90;49.10;102647.56;7253631;19;153620;-55
2023/04/18 01:58:37;;;;;;;;;;;;;;;20.86;49.24;102642.50;7101687;19;3036243;-55
2023/04/18 02:01:04;;;;;;;;;;;;;;;20.85;49.39;102643.63;7264645;19;154154;-55
2023/04/18 02:03:31;;;;;;;;;;;;;;;20.85;49.20;102649.25;7258126;19;153222;-55
2023/04/18 02:06:00;;;;;;;;;;;;;;;20.83;49.21;102654.28;7257467;19;153773;-55
2023/04/18 02:08:29;;;;;;;;;;;;;;;20.83;49.41;102654.28;7254166;19;154079;-55
2023/04/18 02:10:56;;;;;;;;;;;;;;;20.83;48.87;102656.25;7257647;19;152862;-55
2023/04/18 02:13:23;;;;;;;;;;;;;;;20.82;49.19;102651.75;7259265;19;152855;-55
2023/04/18 02:15:50;;;;;;;;;;;;;;;20.81;49.15;102650.03;7256925;19;154340;-55
2023/04/18 02:18:17;;;;;;;;;;;;;;;20.79;49.30;102652.28;7258420;19;153298;-54
2023/04/18 02:20:44;;;;;;;;;;;;;;;20.80;49.37;102659.63;7255154;19;154315;-54
2023/04/18 02:23:11;;;;;;;;;;;;;;;20.77;49.42;102660.97;7265061;19;155626;-55
2023/04/18 02:25:38;;;;;;;;;;;;;;;20.77;49.13;102649.75;7257714;19;153478;-55
2023/04/18 02:28:05;;;;;;;;;;;;;;;20.77;49.23;102655.38;7255179;19;152622;-55
2023/04/18 02:30:31;;;;;;;;;;;;;;;20.77;49.33;102646.94;7256956;19;153332;-55
2023/04/18 02:32:58;;;;;;;;;;;;;;;20.76;49.36;102652.81;7255801;19;153493;-55
2023/04/18 02:35:26;;;;;;;;;;;;;;;20.76;48.90;102648.03;7254361;19;156223;-55
2023/04/18 02:37:52;;;;;;;;;;;;;;;20.75;49.11;102646.38;7256022;19;153253;-55
2023/04/18 02:40:19;;;;;;;;;;;;;;;20.77;49.34;102655.38;7257394;19;153896;-54
2023/04/18 02:42:46;;;;;;;;;;;;;;;20.76;49.15;102645.22;7256050;19;153097;-54
2023/04/18 02:45:13;;;;;;;;;;;;;;;20.75;49.38;102646.38;7265602;19;153831;-55
2023/04/18 02:47:40;;;;;;;;;;;;;;;20.76;49.20;102642.44;7252874;19;153585;-55
2023/04/18 02:50:20;;;;;;;;;;;;;;;20.72;49.38;102646.03;7258878;19;153327;-54
2023/04/18 02:52:47;;;;;;;;;;;;;;;20.70;49.07;102637.91;7253468;19;154482;-54
2023/04/18 02:55:14;;;;;;;;;;;;;;;20.67;49.42;102635.59;7254297;19;154619;-54
2023/04/18 02:57:41;;;;;;;;;;;;;;;20.66;49.18;102642.38;7254379;19;154148;-54
2023/04/18 03:00:08;;;;;;;;;;;;;;;20.66;49.39;102641.50;7258553;19;151922;-53
2023/04/18 03:05:09;;;;;;;;;;;;;;;20.64;49.19;102641.78;7239935;19;153823;-80
2023/04/18 03:07:36;;;;;;;;;;;;;;;20.63;49.26;102633.59;7253838;19;154921;-80
2023/04/18 03:10:04;;;;;;;;;;;;;;;20.62;49.65;102627.16;7252446;19;153073;-80
2023/04/18 03:12:31;;;;;;;;;;;;;;;20.60;49.62;102623.75;7253381;19;153808;-80
2023/04/18 03:14:58;;;;;;;;;;;;;;;20.60;49.32;102626.56;7252525;19;155952;-80
2023/04/18 03:17:24;;;;;;;;;;;;;;;20.61;49.57;102625.47;7250526;19;153277;-80
2023/04/18 03:19:51;;;;;;;;;;;;;;;20.59;49.65;102624.03;7253645;19;155036;-80
2023/04/18 03:22:18;;;;;;;;;;;;;;;20.58;49.48;102628.78;7248641;19;154186;-80
2023/04/18 03:24:45;;;;;;;;;;;;;;;20.56;49.38;102624.56;7255736;19;153538;-80
2023/04/18 03:27:12;;;;;;;;;;;;;;;20.56;49.36;102628.22;7260129;19;155207;-80
2023/04/18 03:29:39;;;;;;;;;;;;;;;20.55;49.35;102626.53;7251696;19;151866;-79
2023/04/18 03:32:06;;;;;;;;;;;;;;;20.54;49.43;102632.41;7250747;19;154359;-80
2023/04/18 03:34:35;;;;;;;;;;;;;;;20.55;49.87;102625.69;7249997;19;155312;-79
2023/04/18 03:37:02;;;;;;;;;;;;;;;20.53;49.52;102628.78;7254293;19;154317;-79
2023/04/18 03:39:29;;;;;;;;;;;;;;;20.53;49.80;102625.13;7250759;19;154390;-80
2023/04/18 03:41:56;;;;;;;;;;;;;;;20.50;49.70;102625.63;7251189;19;155658;-80
2023/04/18 03:44:23;;;;;;;;;;;;;;;20.50;49.46;102631.25;7254024;19;156084;-80
2023/04/18 03:46:50;;;;;;;;;;;;;;;20.48;49.58;102625.91;7251428;19;153362;-80
2023/04/18 03:49:17;;;;;;;;;;;;;;;20.48;49.93;102631.53;7252099;19;154264;-79
2023/04/18 03:51:46;;;;;;;;;;;;;;;20.46;49.86;102625.31;7254026;19;157211;-80
2023/04/18 03:54:16;;;;;;;;;;;;;;;20.47;49.90;102629.84;7250232;19;153818;-80
2023/04/18 03:56:43;;;;;;;;;;;;;;;20.46;49.69;102632.91;7253287;19;154995;-79
2023/04/18 03:59:10;;;;;;;;;;;;;;;20.48;49.96;102625.06;7253191;19;157299;-80
2023/04/18 04:01:37;;;;;;;;;;;;;;;20.49;49.91;102627.59;7250761;19;155492;-80
2023/04/18 04:04:04;;;;;;;;;;;;;;;20.48;49.77;102630.69;7252403;19;154407;-80
2023/04/18 04:06:31;;;;;;;;;;;;;;;20.47;50.20;102624.22;7251752;19;153071;-80
2023/04/18 04:08:58;;;;;;;;;;;;;;;20.45;50.15;102622.78;7250968;19;155420;-79
2023/04/18 04:11:26;;;;;;;;;;;;;;;20.46;49.94;102621.66;7262905;19;153101;-80
2023/04/18 04:13:52;;;;;;;;;;;;;;;20.44;50.39;102624.75;7255053;19;154516;-80
2023/04/18 04:16:19;;;;;;;;;;;;;;;20.43;50.20;102623.06;7254770;19;154216;-80
2023/04/18 04:18:47;;;;;;;;;;;;;;;20.45;50.36;102626.44;7254735;19;155960;-80
2023/04/18 04:21:14;;;;;;;;;;;;;;;20.49;50.29;102626.78;7252181;19;153246;-80
2023/04/18 04:23:41;;;;;;;;;;;;;;;20.52;50.27;102629.03;7251423;19;153197;-80
2023/04/18 04:26:08;;;;;;;;;;;;;;;20.55;50.23;102623.72;7252209;19;153979;-81
2023/04/18 04:28:35;;;;;;;;;;;;;;;20.58;50.24;102625.16;7251655;19;154383;-79
2023/04/18 04:31:06;;;;;;;;;;;;;;;20.60;50.43;102628.53;7250457;19;152043;-80
2023/04/18 04:33:34;;;;;;;;;;;;;;;20.63;50.72;102628.00;7259933;19;153935;-80
2023/04/18 04:36:02;;;;;;;;;;;;;;;20.66;50.84;102619.91;7251958;19;153850;-80
2023/04/18 04:38:29;;;;;;;;;;;;;;;20.68;51.01;102614.84;7253571;19;155493;-80
2023/04/18 04:40:57;;;;;;;;;;;;;;;20.72;51.62;102616.00;7249311;19;154198;-80
2023/04/18 04:43:24;;;;;;;;;;;;;;;20.75;51.68;102614.63;7254320;19;154739;-80
2023/04/18 04:45:51;;;;;;;;;;;;;;;20.78;51.54;102612.13;7252017;19;154334;-79
2023/04/18 04:48:20;;;;;;;;;;;;;;;20.82;51.95;102609.59;7243976;19;154747;-80
2023/04/18 04:50:51;;;;;;;;;;;;;;;20.86;52.14;102605.13;7250254;19;152594;-80
2023/04/18 04:53:18;;;;;;;;;;;;;;;20.91;51.79;102610.78;7249197;19;155780;-80
2023/04/18 04:55:45;;;;;;;;;;;;;;;20.97;51.77;102620.97;7257807;19;156352;-80
2023/04/18 04:58:11;;;;;;;;;;;;;;;21.02;51.92;102622.97;7251643;19;153601;-80
2023/04/18 05:00:38;;;;;;;;;;;;;;;21.06;51.80;102619.34;7251982;19;157063;-80
2023/04/18 05:03:06;;;;;;;;;;;;;;;21.11;51.97;102610.09;7245700;19;153580;-80
2023/04/18 05:05:34;;;;;;;;;;;;;;;21.17;51.55;102609.00;7243409;19;154783;-80
2023/04/18 05:08:01;;;;;;;;;;;;;;;21.21;51.53;102616.63;7254288;19;154786;-80
2023/04/18 05:10:29;;;;;;;;;;;;;;;21.27;51.51;102618.34;7259984;19;154952;-80
2023/04/18 05:12:56;;;;;;;;;;;;;;;21.33;51.77;102612.75;7261951;19;154889;-80
2023/04/18 05:15:23;;;;;;;;;;;;;;;21.37;51.39;102616.72;7259766;19;155419;-80
2023/04/18 05:17:50;;;;;;;;;;;;;;;21.43;51.60;102624.06;7268604;19;154294;-80
2023/04/18 05:20:17;;;;;;;;;;;;;;;21.48;51.28;102627.75;7260981;19;154836;-80
2023/04/18 05:22:44;;;;;;;;;;;;;;;21.52;51.19;102617.66;7258774;19;153357;-79
2023/04/18 05:25:11;;;;;;;;;;;;;;;21.59;51.28;102626.66;7257670;19;154934;-80
2023/04/18 05:27:38;;;;;;;;;;;;;;;21.64;50.71;102623.03;7254366;19;154165;-79
2023/04/18 05:30:06;;;;;;;;;;;;;;;21.69;51.64;102621.09;7253434;19;155158;-79
2023/04/18 05:32:33;;;;;;;;;;;;;;;21.74;51.09;102618.28;7256328;19;154341;-80
2023/04/18 05:35:00;;;;;;;;;;;;;;;21.80;51.14;102615.50;7254178;19;154482;-80
2023/04/18 05:37:27;;;;;;;;;;;;;;;21.85;50.75;102609.91;7264498;19;153451;-80
2023/04/18 05:39:54;;;;;;;;;;;;;;;21.91;50.80;102608.75;7258250;19;156075;-80
2023/04/18 05:42:21;;;;;;;;;;;;;;;21.94;50.65;102606.25;7262670;19;153680;-80
2023/04/18 05:44:47;;;;;;;;;;;;;;;21.99;50.68;102609.09;7261806;19;154191;-80
2023/04/18 05:47:17;;;;;;;;;;;;;;;22.03;50.67;102617.84;7255821;19;154760;-79
2023/04/18 05:49:43;;;;;;;;;;;;;;;22.06;50.46;102604.06;7255117;19;153087;-80
2023/04/18 05:52:10;;;;;;;;;;;;;;;22.10;50.10;102605.19;7255185;19;155459;-80
2023/04/18 05:54:37;;;;;;;;;;;;;;;22.15;49.89;102610.00;7255686;19;154425;-80
2023/04/18 05:57:04;;;;;;;;;;;;;;;22.17;49.84;102605.75;7261463;19;152489;-79
2023/04/18 05:59:31;;;;;;;;;;;;;;;22.21;49.69;102613.66;7267603;19;155639;-80
2023/04/18 06:01:58;;;;;;;;;;;;;;;22.23;49.64;102617.88;7257129;19;153455;-80
2023/04/18 06:04:25;;;;;;;;;;;;;;;22.27;49.43;102615.34;7257144;19;155417;-80
2023/04/18 06:06:53;;;;;;;;;;;;;;;22.30;49.05;102610.00;7259706;19;157366;-83
2023/04/18 06:09:20;;;;;;;;;;;;;;;22.35;47.84;102612.00;7263562;19;152140;-82
2023/04/18 06:11:47;;;;;;;;;;;;;;;22.38;48.30;102602.97;7261298;19;154516;-81
2023/04/18 06:14:14;;;;;;;;;;;;;;;22.38;47.64;102601.00;7258980;19;154883;-81
2023/04/18 06:16:41;;;;;;;;;;;;;;;22.40;47.33;102595.91;7262441;19;152810;-82
2023/04/18 06:19:08;;;;;;;;;;;;;;;22.42;47.22;102604.09;7257757;19;155117;-82
2023/04/18 06:21:35;;;;;;;;;;;;;;;22.43;47.34;102594.53;7266791;19;154503;-82
2023/04/18 06:24:02;;;;;;;;;;;;;;;22.44;47.04;102597.03;7260240;19;156157;-82
2023/04/18 06:26:31;;;;;;;;;;;;;;;22.46;47.08;102597.63;7259196;19;154081;-82
2023/04/18 06:28:58;;;;;;;;;;;;;;;22.49;46.97;102605.50;7261457;19;152517;-82
2023/04/18 06:31:25;;;;;;;;;;;;;;;22.49;46.83;102596.19;7257210;19;154561;-79
2023/04/18 06:33:52;;;;;;;;;;;;;;;22.36;44.04;102599.56;7254287;19;154703;-81
2023/04/18 06:36:20;;;;;;;;;;;;;;;22.24;42.66;102599.88;7258331;19;154255;-81
2023/04/18 06:38:47;;;;;;;;;;;;;;;22.30;42.38;102607.19;7261420;19;154226;-81
2023/04/18 06:41:14;;;;;;;;;;;;;;;22.30;42.51;102600.72;7257816;19;154032;-82
2023/04/18 06:43:41;;;;;;;;;;;;;;;22.31;42.57;102617.31;7266836;19;154671;-81
2023/04/18 06:46:28;;;;;;;;;;;;;;;22.30;42.92;102609.16;7257973;19;155842;-81
2023/04/18 06:48:55;;;;;;;;;;;;;;;22.29;42.63;102615.91;7256262;19;153141;-82
2023/04/18 06:51:23;;;;;;;;;;;;;;;22.28;43.01;102617.03;7259638;19;156007;-81
2023/04/18 06:53:52;;;;;;;;;;;;;;;22.28;42.82;102612.25;7258579;19;153884;-82
2023/04/18 06:56:19;;;;;;;;;;;;;;;22.28;42.94;102602.97;7258730;19;153235;-81
2023/04/18 06:58:51;;;;;;;;;;;;;;;22.27;42.76;102610.56;7258989;19;154381;-81
2023/04/18 07:01:19;;;;;;;;;;;;;;;22.28;43.19;102614.22;7258215;19;155128;-81
2023/04/18 07:03:46;;;;;;;;;;;;;;;22.24;42.48;102613.94;7255117;19;155778;-81
2023/04/18 07:06:14;;;;;;;;;;;;;;;22.23;42.79;102612.25;7264006;19;153672;-81
2023/04/18 07:08:41;;;;;;;;;;;;;;;22.24;42.76;102601.81;7255405;19;152094;-81
2023/04/18 07:11:12;;;;;;;;;;;;;;;22.22;42.65;102599.28;7255405;19;153490;-81
2023/04/18 07:13:39;;;;;;;;;;;;;;;22.19;42.32;102599.84;7256730;19;157901;-81
2023/04/18 07:16:08;;;;;;;;;;;;;;;22.22;42.97;102596.47;7260399;19;153839;-81
2023/04/18 07:18:35;;;;;;;;;;;;;;;22.25;43.10;102590.28;7271130;19;153978;-80
2023/04/18 07:21:06;;;;;;;;;;;;;;;22.27;43.20;102596.47;7267717;19;156472;-82
2023/04/18 07:23:34;;;;;;;;;;;;;;;22.26;43.31;102591.16;7271763;19;153993;-82
2023/04/18 07:26:01;;;;;;;;;;;;;;;22.24;42.84;102591.41;7257760;19;155494;-81
2023/04/18 07:28:30;;;;;;;;;;;;;;;22.24;42.83;102588.59;7265454;19;152984;-81
2023/04/18 07:30:58;;;;;;;;;;;;;;;22.22;42.28;102590.00;7260962;19;154058;-81
2023/04/18 07:33:26;;;;;;;;;;;;;;;22.21;42.14;102589.16;7264475;19;154762;-81
2023/04/18 07:35:54;;;;;;;;;;;;;;;22.19;42.35;102588.59;7264977;19;152178;-81
2023/04/18 07:38:22;;;;;;;;;;;;;;;22.15;42.55;102591.13;7266386;19;154236;-81
2023/04/18 07:40:53;;;;;;;;;;;;;;;22.16;42.06;102591.97;7265706;19;154299;-81
2023/04/18 07:43:20;;;;;;;;;;;;;;;22.13;42.12;102589.69;7266124;19;154527;-81
2023/04/18 07:45:50;;;;;;;;;;;;;;;22.12;42.10;102588.84;7268011;19;153681;-81
2023/04/18 07:48:20;;;;;;;;;;;;;;;22.10;41.81;102585.50;7270792;19;155578;-81
2023/04/18 07:50:48;;;;;;;;;;;;;;;22.08;42.12;102587.72;7264110;19;154888;-81
2023/04/18 07:53:18;;;;;;;;;;;;;;;22.05;41.74;102591.09;7266199;19;153822;-81
2023/04/18 07:55:46;;;;;;;;;;;;;;;22.05;42.19;102590.25;7268011;19;152736;-81
2023/04/18 07:58:14;;;;;;;;;;;;;;;22.05;42.17;102593.06;7269915;19;154795;-81
2023/04/18 08:00:43;;;;;;;;;;;;;;;22.02;42.35;102588.84;7267428;19;154622;-82
2023/04/18 08:03:11;;;;;;;;;;;;;;;22.01;42.26;102589.13;7268661;19;153534;-81
2023/04/18 08:05:40;;;;;;;;;;;;;;;21.97;42.03;102593.63;7266717;19;155087;-82
2023/04/18 08:08:12;;;;;;;;;;;;;;;21.96;41.89;102591.94;7268201;19;154415;-81
2023/04/18 08:10:39;;;;;;;;;;;;;;;21.92;42.04;102576.69;7275701;19;154420;-81
2023/04/18 08:13:07;;;;;;;;;;;;;;;21.89;41.99;102580.91;7266388;19;154985;-81
2023/04/18 08:15:34;;;;;;;;;;;;;;;21.90;42.25;102573.28;7266286;19;152739;-81
2023/04/18 08:18:01;;;;;;;;;;;;;;;21.89;41.92;102577.25;7265385;19;153371;-81
2023/04/18 08:20:29;;;;;;;;;;;;;;;21.85;42.22;102576.13;7263123;19;154188;-81
2023/04/18 08:22:57;;;;;;;;;;;;;;;21.82;42.14;102571.03;7265642;19;153180;-81
2023/04/18 08:25:35;;;;;;;;;;;;;;;21.82;42.15;102562.59;7264657;19;154855;-81
2023/04/18 08:28:02;;;;;;;;;;;;;;;21.82;42.07;102565.41;7262227;19;157189;-81
2023/04/18 08:30:30;;;;;;;;;;;;;;;21.78;41.93;102561.47;7265045;19;152732;-81
2023/04/18 08:32:58;;;;;;;;;;;;;;;21.76;42.09;102561.72;7270606;19;154405;-81
2023/04/18 08:35:26;;;;;;;;;;;;;;;21.73;42.01;102559.47;7260709;19;154880;-81
2023/04/18 08:37:53;;;;;;;;;;;;;;;21.72;42.02;102561.44;7263153;19;154520;-81
2023/04/18 08:40:21;;;;;;;;;;;;;;;21.65;42.35;102560.88;7258343;19;156813;-81
2023/04/18 08:42:51;;;;;;;;;;;;;;;21.69;42.16;102567.63;7253642;19;153518;-81
2023/04/18 08:45:19;;;;;;;;;;;;;;;21.66;42.15;102565.38;7262223;19;155949;-81
2023/04/18 08:47:47;;;;;;;;;;;;;;;21.66;42.03;102562.56;7260540;19;154856;-81
2023/04/18 08:50:15;;;;;;;;;;;;;;;21.67;42.14;102555.81;7262641;19;154170;-81
2023/04/18 08:52:44;;;;;;;;;;;;;;;21.65;42.09;102552.44;7263187;19;153251;-81
2023/04/18 08:55:11;;;;;;;;;;;;;;;21.69;42.21;102550.75;7266973;19;154599;-81
2023/04/18 08:57:42;;;;;;;;;;;;;;;21.68;42.45;102546.25;7263382;19;155050;-81
2023/04/18 09:00:10;;;;;;;;;;;;;;;21.70;42.93;102558.09;7263222;19;154284;-81
2023/04/18 09:05:12;;;;;;;;;;;;;;;21.70;42.94;102554.41;7244400;19;153967;-81
2023/04/18 09:07:39;;;;;;;;;;;;;;;21.77;42.54;102554.13;7254577;19;155152;-80
2023/04/18 09:10:08;;;;;;;;;;;;;;;21.78;42.82;102553.03;7258982;19;154804;-80
2023/04/18 09:12:41;;;;;;;;;;;;;;;21.81;42.63;102558.09;7261977;19;155476;-80
2023/04/18 09:15:10;;;;;;;;;;;;;;;21.84;42.43;102547.13;7254045;19;154736;-82
2023/04/18 09:20:23;;;;;;;;;;;;;;;21.87;42.34;102548.53;7260261;19;154566;-81
2023/04/18 09:22:51;;;;;;;;;;;;;;;21.86;42.50;102539.25;7261988;19;153916;-81
2023/04/18 09:25:23;;;;;;;;;;;;;;;21.88;42.63;102541.78;7260923;19;154136;-81
2023/04/18 09:27:52;;;;;;;;;;;;;;;21.89;42.54;102543.50;7257470;19;155096;-81
2023/04/18 09:30:22;;;;;;;;;;;;;;;21.91;42.42;102544.88;7259097;19;152538;-81
2023/04/18 09:32:56;;;;;;;;;;;;;;;21.92;42.14;102548.53;7261362;19;153456;-81
2023/04/18 09:35:24;;;;;;;;;;;;;;;21.93;42.15;102547.47;7257149;19;156337;-81
2023/04/18 09:37:52;;;;;;;;;;;;;;;21.93;42.16;102539.88;7267646;19;153351;-80
2023/04/18 09:40:20;;;;;;;;;;;;;;;21.93;41.99;102542.69;7257330;19;152643;-81
2023/04/18 09:42:50;;;;;;;;;;;;;;;21.94;42.00;102546.34;7260321;19;152808;-81
2023/04/18 09:45:17;;;;;;;;;;;;;;;21.95;42.33;102553.63;7256240;19;153728;-81
2023/04/18 09:47:45;;;;;;;;;;;;;;;21.93;42.20;102541.84;7251882;19;154882;-83
2023/04/18 09:50:12;;;;;;;;;;;;;;;21.94;42.42;102540.72;7257445;19;153536;-82
2023/04/18 09:52:40;;;;;;;;;;;;;;;21.94;42.45;102544.34;7257737;19;155186;-82
2023/04/18 09:55:09;;;;;;;;;;;;;;;21.94;42.15;102535.09;7261016;19;154137;-82
2023/04/18 09:57:50;;;;;;;;;;;;;;;21.96;41.71;102528.03;7263242;19;153727;-82
2023/04/18 10:00:23;;;;;;;;;;;;;;;21.95;42.03;102522.69;7271377;19;153981;-82
2023/04/18 10:02:54;;;;;;;;;;;;;;;21.94;41.99;102521.03;7261901;19;153521;-81
2023/04/18 10:05:24;;;;;;;;;;;;;;;21.93;41.77;102522.13;7260048;19;153670;-82
2023/04/18 10:08:03;;;;;;;;;;;;;;;21.93;41.87;102522.13;7258335;19;155138;-81
2023/04/18 10:10:33;;;;;;;;;;;;;;;21.93;41.77;102522.13;7265101;19;154446;-82
2023/04/18 10:13:01;;;;;;;;;;;;;;;21.91;41.88;102522.38;7263341;19;154780;-81
2023/04/18 10:15:30;;;;;;;;;;;;;;;21.91;41.73;102513.09;7262745;19;153073;-83
2023/04/18 10:18:03;;;;;;;;;;;;;;;21.91;41.66;102505.50;7262331;19;154771;-82
2023/04/18 10:20:33;;;;;;;;;;;;;;;21.91;41.55;102510.25;7264565;19;155909;-81
2023/04/18 10:23:04;;;;;;;;;;;;;;;21.89;41.31;102504.09;7271958;19;153041;-82
2023/04/18 10:25:33;;;;;;;;;;;;;;;21.89;41.59;102495.66;7261655;19;155051;-81
2023/04/18 10:28:01;;;;;;;;;;;;;;;21.89;41.48;102506.91;7261513;19;154534;-82
2023/04/18 10:30:32;;;;;;;;;;;;;;;21.88;41.62;102503.25;7263239;19;153028;-81
2023/04/18 10:33:18;;;;;;;;;;;;;;;21.86;41.43;102499.84;7262469;19;154524;-82
2023/04/18 10:36:00;;;;;;;;;;;;;;;21.84;41.61;102490.00;7261328;19;155407;-82
2023/04/18 10:38:27;;;;;;;;;;;;;;;21.83;41.90;102486.34;7260969;19;152578;-82
2023/04/18 10:41:03;;;;;;;;;;;;;;;21.85;41.73;102491.72;7258230;19;155280;-81
2023/04/18 10:43:30;;;;;;;;;;;;;;;21.85;41.55;102489.72;7259956;19;154097;-82
2023/04/18 10:46:00;;;;;;;;;;;;;;;21.84;41.99;102485.22;7267492;19;154845;-82
2023/04/18 10:48:29;;;;;;;;;;;;;;;21.88;42.14;102494.81;7256360;19;155334;-82
2023/04/18 10:51:10;;;;;;;;;;;;;;;21.87;42.02;102487.47;7261105;19;154405;-82
2023/04/18 10:53:38;;;;;;;;;;;;;;;21.89;42.34;102493.69;7258742;19;154031;-82
2023/04/18 10:56:06;;;;;;;;;;;;;;;21.92;42.45;102486.63;7254800;19;156264;-82
2023/04/18 10:58:34;;;;;;;;;;;;;;;21.96;42.30;102487.78;7258443;19;153264;-82
2023/04/18 11:01:02;;;;;;;;;;;;;;;21.96;42.47;102484.97;7262343;19;153786;-81
2023/04/18 11:03:32;;;;;;;;;;;;;;;22.00;42.16;102491.72;7257322;19;154017;-82
2023/04/18 11:06:01;;;;;;;;;;;;;;;22.02;42.69;102497.94;7257408;19;153447;-82
2023/04/18 11:08:30;;;;;;;;;;;;;;;22.01;42.73;102485.84;7266474;19;156285;-81
2023/04/18 11:10:58;;;;;;;;;;;;;;;22.04;42.50;102484.41;7256746;19;154963;-83
2023/04/18 11:13:26;;;;;;;;;;;;;;;22.12;43.51;102481.06;7256429;19;155766;-81
2023/04/18 11:15:54;;;;;;;;;;;;;;;22.29;43.39;102480.75;7255550;19;154308;-80
2023/04/18 11:18:21;;;;;;;;;;;;;;;22.36;43.56;102467.22;7254503;19;154139;-81
2023/04/18 11:20:49;;;;;;;;;;;;;;;22.44;44.08;102478.75;7258111;19;155210;-81
2023/04/18 11:23:19;;;;;;;;;;;;;;;22.49;43.75;102470.28;7261081;19;154283;-82
2023/04/18 11:25:50;;;;;;;;;;;;;;;22.57;44.02;102474.53;7272889;19;152986;-83
2023/04/18 11:28:19;;;;;;;;;;;;;;;22.65;43.90;102467.44;7256361;19;154912;-83
2023/04/18 11:30:47;;;;;;;;;;;;;;;22.69;43.85;102468.56;7275846;19;154863;-82
2023/04/18 11:33:15;;;;;;;;;;;;;;;22.73;43.68;102469.69;7270088;19;154629;-83
2023/04/18 11:35:44;;;;;;;;;;;;;;;22.77;43.14;102474.47;7264802;19;157070;-83
2023/04/18 11:38:12;;;;;;;;;;;;;;;22.80;43.18;102473.06;7269816;19;153609;-83
2023/04/18 11:40:43;;;;;;;;;;;;;;;22.85;43.21;102468.25;7262971;19;155525;-83
2023/04/18 11:43:10;;;;;;;;;;;;;;;22.89;43.13;102455.28;7269835;19;154539;-82
2023/04/18 11:45:38;;;;;;;;;;;;;;;22.93;43.04;102470.50;7267390;19;152661;-82
2023/04/18 11:48:05;;;;;;;;;;;;;;;22.97;43.10;102459.47;7252213;19;154446;-83
2023/04/18 11:50:37;;;;;;;;;;;;;;;23.01;42.71;102460.59;7271612;19;154806;-83
2023/04/18 11:53:07;;;;;;;;;;;;;;;23.04;43.16;102455.19;7264770;19;154103;-83
2023/04/18 11:55:36;;;;;;;;;;;;;;;23.08;42.81;102455.47;7259291;19;155221;-83
2023/04/18 11:58:05;;;;;;;;;;;;;;;23.11;43.03;102452.09;7268033;19;153462;-83
2023/04/18 12:00:34;;;;;;;;;;;;;;;23.13;42.64;102446.13;7265297;19;155153;-82
2023/04/18 12:03:03;;;;;;;;;;;;;;;23.16;42.80;102435.16;7262661;19;155614;-82
2023/04/18 12:05:32;;;;;;;;;;;;;;;23.19;42.83;102453.44;7265604;19;152180;-83
2023/04/18 12:08:04;;;;;;;;;;;;;;;23.24;42.62;102453.41;7270239;19;155563;-83
2023/04/18 12:10:34;;;;;;;;;;;;;;;23.27;42.52;102455.66;7272794;19;156112;-82
2023/04/18 12:13:05;;;;;;;;;;;;;;;23.29;42.33;102450.56;7276565;19;154176;-82
2023/04/18 12:15:32;;;;;;;;;;;;;;;23.31;42.07;102439.81;7264083;19;155901;-82
2023/04/18 12:18:29;;;;;;;;;;;;;;;;;;;;;
2023/04/18 12:20:57;;;;;;;;;;;;;;;23.35;42.44;102440.94;7270285;19;154271;-83
2023/04/18 12:23:28;;;;;;;;;;;;;;;23.38;42.15;102446.84;7269740;19;154607;-83
2023/04/18 12:25:59;;;;;;;;;;;;;;;23.41;41.94;102446.25;7267100;19;152748;-83
2023/04/18 12:28:26;;;;;;;;;;;;;;;23.41;41.94;102443.44;7265541;19;152929;-82
2023/04/18 12:30:54;;;;;;;;;;;;;;;23.44;42.03;102447.66;7266284;19;154939;-83
2023/04/18 12:33:22;;;;;;;;;;;;;;;23.44;42.02;102448.53;7266380;19;153549;-83
2023/04/18 12:35:51;;;;;;;;;;;;;;;23.45;41.95;102446.53;7274659;19;155631;-82
2023/04/18 12:38:20;;;;;;;;;;;;;;;23.46;41.84;102451.06;7269535;19;153675;-83
2023/04/18 12:40:49;;;;;;;;;;;;;;;23.46;41.83;102446.25;7267455;19;155917;-82
2023/04/18 12:43:18;;;;;;;;;;;;;;;23.47;41.93;102433.00;7247770;19;157429;-82